sensor_id;sensor_type;location;lat;lon;timestamp;P1;durP1;ratioP1;P2;durP2;ratioP2
18316;SDS011;9284;52.298;21.164;2022-09-17T03:15:29;6.25;;;2.50;;
18316;SDS011;9284;52.298;21.164;2022-09-17T03:17:57;4.75;;;2.17;;
18316;SDS011;9284;52.298;21.164;2022-09-17T03:20:26;3.40;;;2.20;;
18316;SDS011;9284;52.298;21.164;2022-09-17T03:22:54;3.13;;;2.10;;
18316;SDS011;9284;52.298;21.164;2022-09-17T03:25:22;5.78;;;2.13;;
18316;SDS011;9284;52.298;21.164;2022-09-17T03:27:50;5.20;;;2.50;;
18316;SDS011;9284;52.298;21.164;2022-09-17T03:30:18;3.17;;;2.20;;
18316;SDS011;9284;52.298;21.164;2022-09-17T03:32:48;4.32;;;2.40;;
18316;SDS011;9284;52.298;21.164;2022-09-17T03:35:16;6.32;;;2.50;;
18316;SDS011;9284;52.298;21.164;2022-09-17T03:37:44;3.15;;;2.55;;
18316;SDS011;9284;52.298;21.164;2022-09-17T03:40:13;4.70;;;2.65;;
18316;SDS011;9284;52.298;21.164;2022-09-17T03:42:42;7.22;;;2.67;;
18316;SDS011;9284;52.298;21.164;2022-09-17T03:45:10;5.85;;;2.92;;
18316;SDS011;9284;52.298;21.164;2022-09-17T03:47:38;4.35;;;2.30;;
18316;SDS011;9284;52.298;21.164;2022-09-17T03:50:08;3.65;;;2.40;;
18316;SDS011;9284;52.298;21.164;2022-09-17T03:52:36;4.07;;;2.53;;
18316;SDS011;9284;52.298;21.164;2022-09-17T03:55:05;4.40;;;2.90;;
18316;SDS011;9284;52.298;21.164;2022-09-17T03:57:34;3.80;;;2.40;;
18316;SDS011;9284;52.298;21.164;2022-09-17T04:00:02;3.75;;;2.40;;
18316;SDS011;9284;52.298;21.164;2022-09-17T04:02:36;6.40;;;3.17;;
18316;SDS011;9284;52.298;21.164;2022-09-17T04:05:05;4.03;;;2.63;;
18316;SDS011;9284;52.298;21.164;2022-09-17T04:07:36;4.75;;;2.38;;
18316;SDS011;9284;52.298;21.164;2022-09-17T04:10:05;5.38;;;3.17;;
18316;SDS011;9284;52.298;21.164;2022-09-17T04:12:34;6.40;;;2.63;;
18316;SDS011;9284;52.298;21.164;2022-09-17T04:15:02;6.22;;;2.63;;
18316;SDS011;9284;52.298;21.164;2022-09-17T04:17:31;4.90;;;2.75;;
18316;SDS011;9284;52.298;21.164;2022-09-17T04:19:59;7.57;;;2.58;;
18316;SDS011;9284;52.298;21.164;2022-09-17T04:22:29;3.47;;;2.70;;
18316;SDS011;9284;52.298;21.164;2022-09-17T04:24:57;5.43;;;2.70;;
18316;SDS011;9284;52.298;21.164;2022-09-17T04:27:25;7.75;;;2.85;;
18316;SDS011;9284;52.298;21.164;2022-09-17T04:29:53;7.60;;;3.00;;
18316;SDS011;9284;52.298;21.164;2022-09-17T04:32:21;4.63;;;2.60;;
18316;SDS011;9284;52.298;21.164;2022-09-17T04:34:49;6.10;;;2.72;;
18316;SDS011;9284;52.298;21.164;2022-09-17T04:37:17;8.23;;;3.67;;
18316;SDS011;9284;52.298;21.164;2022-09-17T04:39:48;4.82;;;2.85;;
18316;SDS011;9284;52.298;21.164;2022-09-17T04:42:16;3.85;;;2.53;;
18316;SDS011;9284;52.298;21.164;2022-09-17T04:44:45;4.75;;;2.85;;
18316;SDS011;9284;52.298;21.164;2022-09-17T04:47:13;5.47;;;3.20;;
18316;SDS011;9284;52.298;21.164;2022-09-17T04:49:41;6.13;;;2.47;;
18316;SDS011;9284;52.298;21.164;2022-09-17T04:52:09;3.97;;;2.30;;
18316;SDS011;9284;52.298;21.164;2022-09-17T04:54:37;5.40;;;2.80;;
18316;SDS011;9284;52.298;21.164;2022-09-17T04:57:07;5.97;;;3.22;;
18316;SDS011;9284;52.298;21.164;2022-09-17T04:59:35;5.43;;;2.85;;
18316;SDS011;9284;52.298;21.164;2022-09-17T05:02:03;5.47;;;3.40;;
18316;SDS011;9284;52.298;21.164;2022-09-17T05:04:31;4.07;;;2.60;;
18316;SDS011;9284;52.298;21.164;2022-09-17T05:06:59;5.10;;;2.92;;
18316;SDS011;9284;52.298;21.164;2022-09-17T05:09:28;5.22;;;2.72;;
18316;SDS011;9284;52.298;21.164;2022-09-17T05:11:56;5.40;;;2.90;;
18316;SDS011;9284;52.298;21.164;2022-09-17T05:14:25;4.65;;;2.95;;
18316;SDS011;9284;52.298;21.164;2022-09-17T05:16:53;5.50;;;2.70;;
18316;SDS011;9284;52.298;21.164;2022-09-17T05:19:21;5.82;;;2.60;;
18316;SDS011;9284;52.298;21.164;2022-09-17T05:21:50;6.78;;;2.72;;
18316;SDS011;9284;52.298;21.164;2022-09-17T05:24:18;6.45;;;3.00;;
18316;SDS011;9284;52.298;21.164;2022-09-17T05:26:46;5.55;;;3.17;;
18316;SDS011;9284;52.298;21.164;2022-09-17T05:29:14;8.35;;;2.88;;
18316;SDS011;9284;52.298;21.164;2022-09-17T05:31:43;7.90;;;2.72;;
18316;SDS011;9284;52.298;21.164;2022-09-17T05:34:12;7.35;;;3.17;;
18316;SDS011;9284;52.298;21.164;2022-09-17T05:36:40;9.35;;;3.22;;
18316;SDS011;9284;52.298;21.164;2022-09-17T05:39:08;4.68;;;3.50;;
18316;SDS011;9284;52.298;21.164;2022-09-17T05:41:37;5.22;;;3.00;;
18316;SDS011;9284;52.298;21.164;2022-09-17T05:44:06;5.40;;;2.95;;
18316;SDS011;9284;52.298;21.164;2022-09-17T05:46:34;5.35;;;3.05;;
18316;SDS011;9284;52.298;21.164;2022-09-17T05:49:04;7.70;;;3.55;;
18316;SDS011;9284;52.298;21.164;2022-09-17T05:51:32;6.22;;;3.20;;
18316;SDS011;9284;52.298;21.164;2022-09-17T05:54:00;5.30;;;2.40;;
18316;SDS011;9284;52.298;21.164;2022-09-17T05:56:28;3.55;;;2.33;;
18316;SDS011;9284;52.298;21.164;2022-09-17T05:58:57;7.72;;;2.63;;
18316;SDS011;9284;52.298;21.164;2022-09-17T06:01:26;3.63;;;2.20;;
18316;SDS011;9284;52.298;21.164;2022-09-17T06:03:55;4.25;;;2.30;;
18316;SDS011;9284;52.298;21.164;2022-09-17T06:06:25;2.75;;;1.90;;
18316;SDS011;9284;52.298;21.164;2022-09-17T06:08:57;1.85;;;1.58;;
18316;SDS011;9284;52.298;21.164;2022-09-17T06:11:26;1.67;;;1.40;;
18316;SDS011;9284;52.298;21.164;2022-09-17T06:13:54;3.78;;;1.65;;
18316;SDS011;9284;52.298;21.164;2022-09-17T06:16:23;3.53;;;1.30;;
18316;SDS011;9284;52.298;21.164;2022-09-17T06:18:51;2.63;;;1.38;;
18316;SDS011;9284;52.298;21.164;2022-09-17T06:21:20;2.25;;;1.45;;
18316;SDS011;9284;52.298;21.164;2022-09-17T06:23:50;5.85;;;1.38;;
18316;SDS011;9284;52.298;21.164;2022-09-17T06:26:18;2.80;;;1.50;;
18316;SDS011;9284;52.298;21.164;2022-09-17T06:28:46;5.15;;;1.50;;
18316;SDS011;9284;52.298;21.164;2022-09-17T06:31:15;4.78;;;1.25;;
18316;SDS011;9284;52.298;21.164;2022-09-17T06:33:43;2.22;;;1.40;;
18316;SDS011;9284;52.298;21.164;2022-09-17T06:36:13;5.45;;;1.40;;
18316;SDS011;9284;52.298;21.164;2022-09-17T06:38:41;5.55;;;2.10;;
18316;SDS011;9284;52.298;21.164;2022-09-17T06:41:11;7.07;;;2.70;;
18316;SDS011;9284;52.298;21.164;2022-09-17T06:43:42;8.32;;;2.35;;
18316;SDS011;9284;52.298;21.164;2022-09-17T06:46:10;4.20;;;1.88;;
18316;SDS011;9284;52.298;21.164;2022-09-17T06:48:39;5.22;;;1.70;;
18316;SDS011;9284;52.298;21.164;2022-09-17T06:51:08;3.90;;;1.80;;
18316;SDS011;9284;52.298;21.164;2022-09-17T06:53:37;2.35;;;1.40;;
18316;SDS011;9284;52.298;21.164;2022-09-17T06:56:06;4.70;;;1.40;;
18316;SDS011;9284;52.298;21.164;2022-09-17T06:58:37;4.10;;;1.25;;
18316;SDS011;9284;52.298;21.164;2022-09-17T07:01:07;2.00;;;1.30;;
18316;SDS011;9284;52.298;21.164;2022-09-17T07:03:37;1.92;;;1.30;;
18316;SDS011;9284;52.298;21.164;2022-09-17T07:06:08;4.03;;;1.73;;
18316;SDS011;9284;52.298;21.164;2022-09-17T07:08:38;1.45;;;1.10;;
18316;SDS011;9284;52.298;21.164;2022-09-17T07:11:06;3.85;;;1.45;;
18316;SDS011;9284;52.298;21.164;2022-09-17T07:13:36;3.38;;;1.13;;
18316;SDS011;9284;52.298;21.164;2022-09-17T07:16:05;2.88;;;1.40;;
18316;SDS011;9284;52.298;21.164;2022-09-17T07:18:34;3.72;;;1.40;;
18316;SDS011;9284;52.298;21.164;2022-09-17T07:21:02;3.67;;;1.80;;
18316;SDS011;9284;52.298;21.164;2022-09-17T07:23:32;5.05;;;1.60;;
18316;SDS011;9284;52.298;21.164;2022-09-17T07:26:03;3.47;;;1.40;;
18316;SDS011;9284;52.298;21.164;2022-09-17T07:28:32;3.97;;;1.52;;
18316;SDS011;9284;52.298;21.164;2022-09-17T07:31:03;3.88;;;1.50;;
18316;SDS011;9284;52.298;21.164;2022-09-17T07:33:32;2.67;;;1.23;;
18316;SDS011;9284;52.298;21.164;2022-09-17T07:36:02;7.50;;;1.63;;
18316;SDS011;9284;52.298;21.164;2022-09-17T07:38:32;4.53;;;1.90;;
18316;SDS011;9284;52.298;21.164;2022-09-17T07:41:01;2.03;;;1.67;;
18316;SDS011;9284;52.298;21.164;2022-09-17T07:43:31;2.67;;;1.60;;
18316;SDS011;9284;52.298;21.164;2022-09-17T07:46:01;3.47;;;1.70;;
18316;SDS011;9284;52.298;21.164;2022-09-17T07:48:32;3.53;;;1.83;;
18316;SDS011;9284;52.298;21.164;2022-09-17T07:51:00;5.13;;;1.83;;
18316;SDS011;9284;52.298;21.164;2022-09-17T07:53:28;3.35;;;1.65;;
18316;SDS011;9284;52.298;21.164;2022-09-17T07:55:57;3.03;;;1.92;;
18316;SDS011;9284;52.298;21.164;2022-09-17T07:58:27;2.78;;;1.90;;
18316;SDS011;9284;52.298;21.164;2022-09-17T08:01:00;2.97;;;1.83;;
18316;SDS011;9284;52.298;21.164;2022-09-17T08:03:30;4.55;;;1.98;;
18316;SDS011;9284;52.298;21.164;2022-09-17T08:06:02;5.43;;;1.85;;
18316;SDS011;9284;52.298;21.164;2022-09-17T08:08:30;4.57;;;2.25;;
18316;SDS011;9284;52.298;21.164;2022-09-17T08:11:01;4.47;;;2.30;;
18316;SDS011;9284;52.298;21.164;2022-09-17T08:13:30;3.05;;;2.05;;
18316;SDS011;9284;52.298;21.164;2022-09-17T08:15:59;3.55;;;1.90;;
18316;SDS011;9284;52.298;21.164;2022-09-17T08:18:29;3.83;;;1.85;;
18316;SDS011;9284;52.298;21.164;2022-09-17T08:20:57;4.13;;;2.30;;
18316;SDS011;9284;52.298;21.164;2022-09-17T08:23:27;2.38;;;1.85;;
18316;SDS011;9284;52.298;21.164;2022-09-17T08:25:57;3.63;;;2.10;;
18316;SDS011;9284;52.298;21.164;2022-09-17T08:28:26;5.63;;;1.80;;
18316;SDS011;9284;52.298;21.164;2022-09-17T08:30:59;3.63;;;2.30;;
18316;SDS011;9284;52.298;21.164;2022-09-17T08:33:30;4.47;;;2.22;;
18316;SDS011;9284;52.298;21.164;2022-09-17T08:36:00;3.80;;;2.60;;
18316;SDS011;9284;52.298;21.164;2022-09-17T08:38:29;3.50;;;2.15;;
18316;SDS011;9284;52.298;21.164;2022-09-17T08:41:06;4.68;;;2.83;;
18316;SDS011;9284;52.298;21.164;2022-09-17T08:43:47;2.75;;;1.85;;
18316;SDS011;9284;52.298;21.164;2022-09-17T08:46:22;4.03;;;2.20;;
18316;SDS011;9284;52.298;21.164;2022-09-17T08:48:55;3.70;;;2.10;;
18316;SDS011;9284;52.298;21.164;2022-09-17T08:51:41;2.50;;;2.00;;
18316;SDS011;9284;52.298;21.164;2022-09-17T08:54:18;2.67;;;2.03;;
18316;SDS011;9284;52.298;21.164;2022-09-17T08:57:07;2.72;;;1.90;;
18316;SDS011;9284;52.298;21.164;2022-09-17T08:59:44;3.33;;;1.90;;
18316;SDS011;9284;52.298;21.164;2022-09-17T09:02:22;4.95;;;2.00;;
18316;SDS011;9284;52.298;21.164;2022-09-17T09:05:02;4.68;;;1.90;;
18316;SDS011;9284;52.298;21.164;2022-09-17T09:07:39;1.58;;;1.40;;
18316;SDS011;9284;52.298;21.164;2022-09-17T09:10:13;1.65;;;1.52;;
18316;SDS011;9284;52.298;21.164;2022-09-17T09:12:47;2.88;;;1.42;;
18316;SDS011;9284;52.298;21.164;2022-09-17T09:15:20;4.25;;;1.60;;
18316;SDS011;9284;52.298;21.164;2022-09-17T09:17:56;1.88;;;1.38;;
18316;SDS011;9284;52.298;21.164;2022-09-17T09:20:34;4.30;;;1.50;;
18316;SDS011;9284;52.298;21.164;2022-09-17T09:23:09;1.35;;;1.23;;
18316;SDS011;9284;52.298;21.164;2022-09-17T09:25:49;1.88;;;1.30;;
18316;SDS011;9284;52.298;21.164;2022-09-17T09:28:29;2.00;;;1.50;;
18316;SDS011;9284;52.298;21.164;2022-09-17T09:31:09;2.67;;;1.38;;
18316;SDS011;9284;52.298;21.164;2022-09-17T09:33:45;2.38;;;1.10;;
18316;SDS011;9284;52.298;21.164;2022-09-17T09:36:17;1.73;;;1.38;;
18316;SDS011;9284;52.298;21.164;2022-09-17T09:38:49;4.45;;;1.55;;
18316;SDS011;9284;52.298;21.164;2022-09-17T09:41:24;4.10;;;1.70;;
18316;SDS011;9284;52.298;21.164;2022-09-17T09:43:57;1.88;;;1.20;;
18316;SDS011;9284;52.298;21.164;2022-09-17T09:46:35;2.03;;;1.17;;
18316;SDS011;9284;52.298;21.164;2022-09-17T09:49:33;3.30;;;1.30;;
18316;SDS011;9284;52.298;21.164;2022-09-17T09:52:16;6.50;;;1.40;;
18316;SDS011;9284;52.298;21.164;2022-09-17T09:54:57;2.70;;;1.50;;
18316;SDS011;9284;52.298;21.164;2022-09-17T09:57:35;3.22;;;1.58;;
18316;SDS011;9284;52.298;21.164;2022-09-17T10:00:26;1.98;;;1.48;;
18316;SDS011;9284;52.298;21.164;2022-09-17T10:02:58;2.92;;;1.50;;
18316;SDS011;9284;52.298;21.164;2022-09-17T10:05:31;2.58;;;1.45;;
18316;SDS011;9284;52.298;21.164;2022-09-17T10:08:00;1.67;;;1.30;;
18316;SDS011;9284;52.298;21.164;2022-09-17T10:10:38;3.03;;;1.50;;
18316;SDS011;9284;52.298;21.164;2022-09-17T10:13:21;2.40;;;1.70;;
18316;SDS011;9284;52.298;21.164;2022-09-17T10:15:49;2.42;;;1.70;;
18316;SDS011;9284;52.298;21.164;2022-09-17T10:18:19;3.22;;;1.85;;
18316;SDS011;9284;52.298;21.164;2022-09-17T10:20:52;1.42;;;1.08;;
18316;SDS011;9284;52.298;21.164;2022-09-17T10:23:27;2.10;;;1.25;;
18316;SDS011;9284;52.298;21.164;2022-09-17T10:25:59;3.22;;;1.20;;
18316;SDS011;9284;52.298;21.164;2022-09-17T10:28:28;2.00;;;1.40;;
18316;SDS011;9284;52.298;21.164;2022-09-17T10:31:00;3.22;;;1.63;;
18316;SDS011;9284;52.298;21.164;2022-09-17T10:33:34;3.15;;;1.77;;
18316;SDS011;9284;52.298;21.164;2022-09-17T10:36:08;3.40;;;1.83;;
18316;SDS011;9284;52.298;21.164;2022-09-17T10:38:42;2.92;;;1.73;;
18316;SDS011;9284;52.298;21.164;2022-09-17T10:41:14;2.00;;;1.38;;
18316;SDS011;9284;52.298;21.164;2022-09-17T10:43:44;2.05;;;1.55;;
18316;SDS011;9284;52.298;21.164;2022-09-17T10:46:13;4.25;;;1.42;;
18316;SDS011;9284;52.298;21.164;2022-09-17T10:48:52;5.13;;;1.30;;
18316;SDS011;9284;52.298;21.164;2022-09-17T10:51:33;1.42;;;1.25;;
18316;SDS011;9284;52.298;21.164;2022-09-17T10:54:17;1.70;;;1.00;;
18316;SDS011;9284;52.298;21.164;2022-09-17T10:57:06;1.83;;;1.45;;
18316;SDS011;9284;52.298;21.164;2022-09-17T10:59:52;3.65;;;1.13;;
18316;SDS011;9284;52.298;21.164;2022-09-17T11:02:56;2.42;;;1.00;;
18316;SDS011;9284;52.298;21.164;2022-09-17T11:06:01;2.25;;;1.00;;
18316;SDS011;9284;52.298;21.164;2022-09-17T11:08:42;1.33;;;1.13;;
18316;SDS011;9284;52.298;21.164;2022-09-17T11:11:26;4.13;;;1.10;;
18316;SDS011;9284;52.298;21.164;2022-09-17T11:14:09;1.98;;;1.23;;
18316;SDS011;9284;52.298;21.164;2022-09-17T11:16:47;1.80;;;1.20;;
18316;SDS011;9284;52.298;21.164;2022-09-17T11:19:26;1.40;;;1.10;;
18316;SDS011;9284;52.298;21.164;2022-09-17T11:22:04;1.55;;;1.10;;
18316;SDS011;9284;52.298;21.164;2022-09-17T11:24:55;1.30;;;0.98;;
18316;SDS011;9284;52.298;21.164;2022-09-17T11:27:36;0.88;;;0.88;;
18316;SDS011;9284;52.298;21.164;2022-09-17T11:30:14;2.08;;;1.40;;
18316;SDS011;9284;52.298;21.164;2022-09-17T11:32:51;1.05;;;0.80;;
18316;SDS011;9284;52.298;21.164;2022-09-17T11:35:54;1.77;;;0.90;;
18316;SDS011;9284;52.298;21.164;2022-09-17T11:38:27;1.42;;;0.98;;
18316;SDS011;9284;52.298;21.164;2022-09-17T11:40:59;1.10;;;0.70;;
18316;SDS011;9284;52.298;21.164;2022-09-17T11:43:33;1.10;;;0.90;;
18316;SDS011;9284;52.298;21.164;2022-09-17T11:46:04;2.20;;;1.10;;
18316;SDS011;9284;52.298;21.164;2022-09-17T11:48:37;1.23;;;0.95;;
18316;SDS011;9284;52.298;21.164;2022-09-17T11:51:20;2.22;;;0.90;;
18316;SDS011;9284;52.298;21.164;2022-09-17T11:53:55;1.17;;;0.90;;
18316;SDS011;9284;52.298;21.164;2022-09-17T11:56:32;1.30;;;0.98;;
18316;SDS011;9284;52.298;21.164;2022-09-17T11:59:09;1.90;;;1.00;;
18316;SDS011;9284;52.298;21.164;2022-09-17T12:01:45;1.40;;;0.80;;
18316;SDS011;9284;52.298;21.164;2022-09-17T12:04:30;0.90;;;0.80;;
18316;SDS011;9284;52.298;21.164;2022-09-17T12:07:07;1.98;;;1.00;;
18316;SDS011;9284;52.298;21.164;2022-09-17T12:09:42;1.20;;;0.90;;
18316;SDS011;9284;52.298;21.164;2022-09-17T12:12:16;2.05;;;1.00;;
18316;SDS011;9284;52.298;21.164;2022-09-17T12:15:12;2.50;;;1.00;;
18316;SDS011;9284;52.298;21.164;2022-09-17T12:17:45;1.85;;;1.00;;
18316;SDS011;9284;52.298;21.164;2022-09-17T12:20:39;1.20;;;1.00;;
18316;SDS011;9284;52.298;21.164;2022-09-17T12:23:12;1.52;;;1.00;;
18316;SDS011;9284;52.298;21.164;2022-09-17T12:25:46;2.50;;;1.48;;
18316;SDS011;9284;52.298;21.164;2022-09-17T12:28:23;2.22;;;1.30;;
18316;SDS011;9284;52.298;21.164;2022-09-17T12:31:00;1.10;;;1.00;;
18316;SDS011;9284;52.298;21.164;2022-09-17T12:33:35;1.95;;;1.35;;
18316;SDS011;9284;52.298;21.164;2022-09-17T12:36:11;2.85;;;1.40;;
18316;SDS011;9284;52.298;21.164;2022-09-17T12:38:55;1.52;;;1.20;;
18316;SDS011;9284;52.298;21.164;2022-09-17T12:41:37;1.30;;;1.20;;
18316;SDS011;9284;52.298;21.164;2022-09-17T12:44:17;2.35;;;1.30;;
18316;SDS011;9284;52.298;21.164;2022-09-17T12:47:28;1.60;;;1.02;;
18316;SDS011;9284;52.298;21.164;2022-09-17T12:50:32;1.23;;;1.10;;
18316;SDS011;9284;52.298;21.164;2022-09-17T12:53:19;1.30;;;1.10;;
18316;SDS011;9284;52.298;21.164;2022-09-17T12:56:00;1.50;;;1.10;;
18316;SDS011;9284;52.298;21.164;2022-09-17T12:58:39;2.00;;;1.30;;
18316;SDS011;9284;52.298;21.164;2022-09-17T13:01:23;5.03;;;1.50;;
18316;SDS011;9284;52.298;21.164;2022-09-17T13:04:00;7.45;;;1.20;;
18316;SDS011;9284;52.298;21.164;2022-09-17T13:10:02;1.88;;;1.10;;
18316;SDS011;9284;52.298;21.164;2022-09-17T13:12:46;2.10;;;1.33;;
18316;SDS011;9284;52.298;21.164;2022-09-17T13:15:36;1.52;;;1.13;;
18316;SDS011;9284;52.298;21.164;2022-09-17T13:18:13;2.15;;;1.30;;
18316;SDS011;9284;52.298;21.164;2022-09-17T13:20:56;1.45;;;1.25;;
18316;SDS011;9284;52.298;21.164;2022-09-17T13:23:31;1.83;;;1.30;;
18316;SDS011;9284;52.298;21.164;2022-09-17T13:26:02;1.88;;;1.38;;
18316;SDS011;9284;52.298;21.164;2022-09-17T13:28:38;2.50;;;1.38;;
18316;SDS011;9284;52.298;21.164;2022-09-17T13:34:29;4.85;;;1.80;;
18316;SDS011;9284;52.298;21.164;2022-09-17T13:36:59;2.65;;;1.45;;
18316;SDS011;9284;52.298;21.164;2022-09-17T13:39:34;1.92;;;1.50;;
18316;SDS011;9284;52.298;21.164;2022-09-17T13:42:08;2.28;;;1.70;;
18316;SDS011;9284;52.298;21.164;2022-09-17T13:44:43;1.85;;;1.52;;
18316;SDS011;9284;52.298;21.164;2022-09-17T13:47:25;3.42;;;1.88;;
18316;SDS011;9284;52.298;21.164;2022-09-17T13:49:57;2.70;;;1.50;;
18316;SDS011;9284;52.298;21.164;2022-09-17T13:52:31;1.92;;;1.50;;
18316;SDS011;9284;52.298;21.164;2022-09-17T13:55:04;4.50;;;1.70;;
18316;SDS011;9284;52.298;21.164;2022-09-17T13:57:46;2.90;;;1.92;;
18316;SDS011;9284;52.298;21.164;2022-09-17T14:09:31;2.33;;;2.03;;
18316;SDS011;9284;52.298;21.164;2022-09-17T14:18:04;2.65;;;1.70;;
18316;SDS011;9284;52.298;21.164;2022-09-17T14:21:04;2.28;;;1.52;;
18316;SDS011;9284;52.298;21.164;2022-09-17T14:23:41;3.83;;;2.03;;
18316;SDS011;9284;52.298;21.164;2022-09-17T14:26:13;2.28;;;1.77;;
18316;SDS011;9284;52.298;21.164;2022-09-17T14:28:54;1.95;;;1.75;;
18316;SDS011;9284;52.298;21.164;2022-09-17T14:31:29;5.60;;;1.92;;
18316;SDS011;9284;52.298;21.164;2022-09-17T14:34:03;1.58;;;1.48;;
18316;SDS011;9284;52.298;21.164;2022-09-17T14:36:33;2.83;;;1.80;;
18316;SDS011;9284;52.298;21.164;2022-09-17T14:39:04;1.73;;;1.58;;
18316;SDS011;9284;52.298;21.164;2022-09-17T14:41:40;5.38;;;2.03;;
18316;SDS011;9284;52.298;21.164;2022-09-17T14:44:11;3.75;;;2.08;;
18316;SDS011;9284;52.298;21.164;2022-09-17T14:46:42;3.33;;;2.35;;
18316;SDS011;9284;52.298;21.164;2022-09-17T14:49:19;3.03;;;2.20;;
18316;SDS011;9284;52.298;21.164;2022-09-17T14:51:49;3.60;;;1.92;;
18316;SDS011;9284;52.298;21.164;2022-09-17T14:54:19;3.10;;;2.17;;
18316;SDS011;9284;52.298;21.164;2022-09-17T14:56:54;4.65;;;2.30;;
18316;SDS011;9284;52.298;21.164;2022-09-17T14:59:29;2.63;;;2.20;;
18316;SDS011;9284;52.298;21.164;2022-09-17T15:05:16;4.10;;;2.25;;
18316;SDS011;9284;52.298;21.164;2022-09-17T15:07:47;2.80;;;2.03;;
18316;SDS011;9284;52.298;21.164;2022-09-17T15:10:17;3.58;;;2.08;;
18316;SDS011;9284;52.298;21.164;2022-09-17T15:12:48;4.10;;;2.20;;
18316;SDS011;9284;52.298;21.164;2022-09-17T15:15:18;3.38;;;2.33;;
18316;SDS011;9284;52.298;21.164;2022-09-17T15:17:48;2.83;;;2.30;;
18316;SDS011;9284;52.298;21.164;2022-09-17T15:20:18;3.58;;;2.50;;
18316;SDS011;9284;52.298;21.164;2022-09-17T15:22:51;2.83;;;2.22;;
18316;SDS011;9284;52.298;21.164;2022-09-17T15:25:24;3.47;;;2.40;;
18316;SDS011;9284;52.298;21.164;2022-09-17T15:27:58;3.00;;;2.38;;
18316;SDS011;9284;52.298;21.164;2022-09-17T15:30:31;2.67;;;2.42;;
18316;SDS011;9284;52.298;21.164;2022-09-17T15:32:59;2.97;;;2.60;;
18316;SDS011;9284;52.298;21.164;2022-09-17T15:35:29;4.22;;;2.53;;
18316;SDS011;9284;52.298;21.164;2022-09-17T15:37:59;3.17;;;2.20;;
18316;SDS011;9284;52.298;21.164;2022-09-17T15:40:48;3.20;;;2.65;;
18316;SDS011;9284;52.298;21.164;2022-09-17T15:43:20;3.53;;;2.92;;
18316;SDS011;9284;52.298;21.164;2022-09-17T15:45:52;3.53;;;2.72;;
18316;SDS011;9284;52.298;21.164;2022-09-17T15:48:22;3.35;;;2.60;;
18316;SDS011;9284;52.298;21.164;2022-09-17T15:51:01;4.68;;;3.05;;
18316;SDS011;9284;52.298;21.164;2022-09-17T15:53:32;4.82;;;2.85;;
18316;SDS011;9284;52.298;21.164;2022-09-17T15:56:02;4.97;;;3.13;;
18316;SDS011;9284;52.298;21.164;2022-09-17T15:58:50;5.50;;;3.42;;
18316;SDS011;9284;52.298;21.164;2022-09-17T16:04:21;4.47;;;3.33;;
18316;SDS011;9284;52.298;21.164;2022-09-17T16:06:58;8.80;;;3.80;;
18316;SDS011;9284;52.298;21.164;2022-09-17T16:09:43;5.03;;;3.47;;
18316;SDS011;9284;52.298;21.164;2022-09-17T16:12:15;4.35;;;3.53;;
18316;SDS011;9284;52.298;21.164;2022-09-17T16:14:47;5.25;;;3.90;;
18316;SDS011;9284;52.298;21.164;2022-09-17T16:17:21;5.40;;;3.67;;
18316;SDS011;9284;52.298;21.164;2022-09-17T16:19:54;7.35;;;4.22;;
18316;SDS011;9284;52.298;21.164;2022-09-17T16:22:30;7.85;;;4.63;;
18316;SDS011;9284;52.298;21.164;2022-09-17T16:24:59;6.80;;;4.30;;
18316;SDS011;9284;52.298;21.164;2022-09-17T16:27:29;9.48;;;5.72;;
18316;SDS011;9284;52.298;21.164;2022-09-17T16:30:02;8.75;;;5.88;;
18316;SDS011;9284;52.298;21.164;2022-09-17T16:32:32;9.57;;;5.22;;
18316;SDS011;9284;52.298;21.164;2022-09-17T16:35:00;5.90;;;4.22;;
18316;SDS011;9284;52.298;21.164;2022-09-17T16:37:28;8.23;;;4.13;;
18316;SDS011;9284;52.298;21.164;2022-09-17T16:39:56;6.65;;;4.40;;
18316;SDS011;9284;52.298;21.164;2022-09-17T16:42:28;8.55;;;4.30;;
18316;SDS011;9284;52.298;21.164;2022-09-17T16:44:57;6.65;;;4.30;;
18316;SDS011;9284;52.298;21.164;2022-09-17T16:47:27;8.48;;;4.78;;
18316;SDS011;9284;52.298;21.164;2022-09-17T16:49:56;6.40;;;4.45;;
18316;SDS011;9284;52.298;21.164;2022-09-17T16:52:24;8.10;;;4.45;;
18316;SDS011;9284;52.298;21.164;2022-09-17T16:54:53;7.43;;;4.82;;
18316;SDS011;9284;52.298;21.164;2022-09-17T16:57:21;6.82;;;5.07;;
18316;SDS011;9284;52.298;21.164;2022-09-17T16:59:49;9.85;;;5.57;;
18316;SDS011;9284;52.298;21.164;2022-09-17T17:02:17;8.05;;;5.47;;
18316;SDS011;9284;52.298;21.164;2022-09-17T17:04:46;7.93;;;5.50;;
18316;SDS011;9284;52.298;21.164;2022-09-17T17:07:15;9.60;;;6.03;;
18316;SDS011;9284;52.298;21.164;2022-09-17T17:09:43;7.85;;;4.95;;
18316;SDS011;9284;52.298;21.164;2022-09-17T17:12:11;8.02;;;5.45;;
18316;SDS011;9284;52.298;21.164;2022-09-17T17:14:39;9.20;;;5.45;;
18316;SDS011;9284;52.298;21.164;2022-09-17T17:17:07;10.27;;;6.22;;
18316;SDS011;9284;52.298;21.164;2022-09-17T17:19:36;11.13;;;6.10;;
18316;SDS011;9284;52.298;21.164;2022-09-17T17:22:05;10.60;;;6.47;;
18316;SDS011;9284;52.298;21.164;2022-09-17T17:24:34;8.68;;;5.95;;
18316;SDS011;9284;52.298;21.164;2022-09-17T17:27:02;12.35;;;6.57;;
18316;SDS011;9284;52.298;21.164;2022-09-17T17:29:30;11.52;;;6.80;;
18316;SDS011;9284;52.298;21.164;2022-09-17T17:31:59;11.80;;;6.55;;
18316;SDS011;9284;52.298;21.164;2022-09-17T17:34:29;12.30;;;6.93;;
18316;SDS011;9284;52.298;21.164;2022-09-17T17:36:57;11.18;;;7.35;;
18316;SDS011;9284;52.298;21.164;2022-09-17T17:39:27;12.90;;;7.88;;
18316;SDS011;9284;52.298;21.164;2022-09-17T17:41:56;14.63;;;8.02;;
18316;SDS011;9284;52.298;21.164;2022-09-17T17:44:24;12.98;;;8.50;;
18316;SDS011;9284;52.298;21.164;2022-09-17T17:46:52;17.10;;;9.32;;
18316;SDS011;9284;52.298;21.164;2022-09-17T17:49:21;13.77;;;8.57;;
18316;SDS011;9284;52.298;21.164;2022-09-17T17:51:49;13.50;;;8.10;;
18316;SDS011;9284;52.298;21.164;2022-09-17T17:54:18;13.65;;;7.90;;
18316;SDS011;9284;52.298;21.164;2022-09-17T17:56:48;10.57;;;7.25;;
18316;SDS011;9284;52.298;21.164;2022-09-17T17:59:16;11.88;;;7.80;;
18316;SDS011;9284;52.298;21.164;2022-09-17T18:01:44;13.88;;;7.88;;
18316;SDS011;9284;52.298;21.164;2022-09-17T18:04:13;16.35;;;9.02;;
18316;SDS011;9284;52.298;21.164;2022-09-17T18:06:41;14.68;;;8.95;;
18316;SDS011;9284;52.298;21.164;2022-09-17T18:09:09;13.82;;;9.23;;
18316;SDS011;9284;52.298;21.164;2022-09-17T18:11:37;14.88;;;9.05;;
18316;SDS011;9284;52.298;21.164;2022-09-17T18:14:08;12.95;;;7.95;;
18316;SDS011;9284;52.298;21.164;2022-09-17T18:16:39;14.25;;;8.68;;
18316;SDS011;9284;52.298;21.164;2022-09-17T18:19:08;12.55;;;8.43;;
18316;SDS011;9284;52.298;21.164;2022-09-17T18:21:37;15.00;;;8.20;;
18316;SDS011;9284;52.298;21.164;2022-09-17T18:24:05;10.65;;;7.10;;
18316;SDS011;9284;52.298;21.164;2022-09-17T18:26:34;12.30;;;7.25;;
18316;SDS011;9284;52.298;21.164;2022-09-17T18:29:02;15.57;;;8.80;;
18316;SDS011;9284;52.298;21.164;2022-09-17T18:31:35;10.98;;;7.85;;
18316;SDS011;9284;52.298;21.164;2022-09-17T18:34:04;14.63;;;8.52;;
18316;SDS011;9284;52.298;21.164;2022-09-17T18:36:34;12.27;;;7.85;;
18316;SDS011;9284;52.298;21.164;2022-09-17T18:39:05;14.98;;;9.27;;
18316;SDS011;9284;52.298;21.164;2022-09-17T18:41:54;17.27;;;8.90;;
18316;SDS011;9284;52.298;21.164;2022-09-17T18:44:23;14.07;;;8.85;;
18316;SDS011;9284;52.298;21.164;2022-09-17T18:46:52;16.90;;;8.95;;
18316;SDS011;9284;52.298;21.164;2022-09-17T18:49:20;17.83;;;9.95;;
18316;SDS011;9284;52.298;21.164;2022-09-17T18:51:49;16.48;;;9.25;;
18316;SDS011;9284;52.298;21.164;2022-09-17T18:54:17;18.10;;;9.80;;
18316;SDS011;9284;52.298;21.164;2022-09-17T18:56:46;16.88;;;9.40;;
18316;SDS011;9284;52.298;21.164;2022-09-17T18:59:16;17.63;;;9.40;;
18316;SDS011;9284;52.298;21.164;2022-09-17T19:01:44;15.77;;;9.70;;